GGPoker Omaholic Series Ends in Style This Weekend

dates Time (BST) events buy in Guarantee

Sat 23 Apr 10:30 am Omaholic Mini Bounty MILLION$ $5.25 [Stage 1] $5.25 $100,000

12:30 p.m Omaholic Mini Bounty MILLION$ $5.25 [Stage 1] $5.25 $100,000

12:30 p.m Omaholic Bounty MILLION$ $52.50 [Stage 1] $52.50 $250,000

2:30pm Omaholic Mini Bounty MILLION$ $5.25 [Stage 1] $5.25 $100,000

3:00 p.m Omaholic Double Chance $55 [2-Stack] $55 $4,000

3:30pm Omaholic Bounty Warm Up $210 $210 $10,000

3:30pm Omaholic Bounty Warm Up $21 $21 $7,500

3:30pm Omaholic Bounty MILLION$ $52.50 [Stage 1] $52.50 $250,000

4:00 p.m Omaholic Hundred Stack $840 $840 $20,000

4:00 p.m Omaholic Hundred Stack $88 $88 $10,000

4:30pm Omaholic Mini Bounty MILLION$ $5.25 [Stage 1] $5.25 $100,000

5:30pm Omaholic Bounty HR $525 $525 $20,000

5:30pm Omaholic Mini Bounty HR $52.50 $52.50 $10,000

6:00 p.m Omaholic Daily Main $250 $250 $10,000

6:00 p.m Omaholic Daily Mini Main $25 $25 $5,000

6:00 p.m Omaholic Mini Bounty MILLION$ $5.25 [Last Chance] $5.25 $100,000

6:30pm Omaholic Bounty King $315 $315 $12,500

6:30pm Omaholic Bounty MILLION$ $52.50 [Stage 1] $52.50 $250,000

6:40pm Omaholic Bounty King Jr $31.50 $31.50 $10,000

7:00 p.m Omaholic High Roller $1,050 $1,050 $25,000

7:00 p.m Omaholic Daily Special $125 $125 $7,500

7:00 p.m Omaholic Mini Bounty MILLION$ $5.25 [Last Minute] $5.25 $100,000

7:30pm Omaholic Mini Bounty MILLION$ $5.25 [Last Call] $5.25 $100,000

8:00 p.m Omaholic Superstack Turbo $55 $55 $4,000

8:00 p.m Omaholic Superstack Turbo $5.50 $5.50 $2,000

8:30pm Omaholic Mini Bounty MILLION$ $5.25 [Final Stage] $5.25 $100,000

9:30pm Omaholic Bounty Cooldown $105 $105 $6,000

9:30pm Omaholic Bounty Cooldown $10.50 $10.50 $4,000

9:30pm Omaholic Bounty MILLION$ $52.50 [Stage 1] $52.50 $250,000

10:30pm Omaholic Bounty Closer $210 $210 $5,000

10:30pm Omaholic Bounty Closer $21 $21 $2,500

11:10pm Omaholic Speed ​​Racer Bounty $52.50 $52.50 $2,500

Sun 24 Apr 0:30 am Omaholic Bounty MILLION$ $52.50 [Stage 1] $52.50 $250,000

3:30 am Omaholic Bounty MILLION$ $52.50 [Stage 1] $52.50 $250,000

6:30 am Omaholic Bounty MILLION$ $52.50 [Stage 1] $52.50 $250,000

9:30 am Omaholic Bounty MILLION$ $52.50 [Stage 1] $52.50 $250,000

12:30 p.m Omaholic Bounty MILLION$ $52.50 [Stage 1] $52.50 $250,000

2:30pm Omaholic Bounty MILLION$ $52.50 [Stage 1] $52.50 $250,000

3:00 p.m Omaholic Double Chance $55 [2-Stack] $55 $10,000

3:30pm Omaholic Bounty Warm Up $210 $210 $30,000

3:30pm Omaholic Bounty Warm Up $21 $21 $15,000

4:00 p.m Omaholic Hundred Stack $840 $840 $75,000

4:00 p.m Omaholic Hundred Stack $88 $88 $20,000

4:30pm Omaholic Bounty MILLION$ $52.50 [Stage 1] $52.50 $250,000

5:30pm Omaholic Bounty SHR $5,250 $5,250 $100,000

5:30pm Omaholic Mini Bounty HR $52.50 $52.50 $25,000

6:00 p.m Omaholic Super Sunday $400 $400 $50,000

6:00 p.m Omaholic Super Sunday $40 $40 $15,000

6:00 p.m Omaholic Bounty MILLION$ $52.50 [Last Chance] $52.50 $250,000

6:30pm Omaholic Bounty King $315 $315 $40,000

6:40pm Omaholic Bounty King Jr $31.50 $31.50 $15,000

7:00 p.m Omaholic Sunday Special $125 $125 $20,000

7:00 p.m Omaholic Bounty MILLION$ $52.50 [Last Minute] $52.50 $250,000

7:30pm Omaholic Bounty MILLION$ $52.50 [Last Call] $52.50 $250,000

8:00 p.m Omaholic Fifty Stack HR $525 $525 $40,000

8:00 p.m Omaholic Fifty Stack $55 $55 $12,500

8:30pm Omaholic Bounty MILLION$ $52.50 [Final Stage] $52.50 $250,000

9:30pm Omaholic Bounty Cooldown $105 $105 $15,000

9:30pm Omaholic Bounty Cooldown $10.50 $10.50 $5,000

10:30pm Omaholic Bounty Closer $210 $210 $12,500

10:30pm Omaholic Bounty Closer $21 $21 $4,000

11:10pm Omaholic Sunday Speed ​​Racer Bounty $52.50 $52.50 $7,500

wroadmin

Leave a Reply

Your email address will not be published.